Accueil
METAR-TAF:

METAR-TAF

Aéroports :

Gibraltar, Gibraltar

Aéroport international de Gibraltar

latitude: 36-09N, longitude: 005-21W, altitude: 5 m

Observation

Le bulletin a été fait il y a 1 heure et 1 minutes, à 00:50 UTC
Vent 3 kt de est/sud-est
Température 24°C
Humidité 89%
Pression 1015 hPa
Visibilité 10 km ou plus

METAR: LXGB 190050Z AUTO 11003KT 9999 // NCD 24/22 Q1015

Heure: 03:51 (01:51 UTC)

Prévision

Le bulletin a été fait il y a 9 heures et 8 minutes, à 16:43 UTC
Prévision valable du 18 à 18 UTC au 18 à 22 UTC
Vent 10 kt de est
Visibilité 10 km ou plus
Quelques nuages à une hauteur de 1500 ft
Probabilité 40% :
Temporairement
du 18 à 18 UTC au 18 à 22 UTC
Visibilité: 6000 m
brume sèche

TAF: LXGB 181643Z 1818/1822 08010KT 9999 FEW015 PROB40 TEMPO 1818/1822 6000 HZ

Observations et prévisions météorologiques de plus de 4000 aéroports (messages METAR et TAF).

Les stations disponibles sont représentées par des disques jaunes et rouges sur la carte.

Passer la souris dessus pour voir le nom de la station.

Cliquer dessus pour voir les observations et prévisions météorologiques.

Pour changer de carte: cliquez sur les boutons verts avec une croix noire pour zoomer, sur le bouton vert avec un tiret pour effectuer un zoom arrière, ou sur les flèches vertes pour les cartes adjacentes.


METAR-TAF: